createdAt,value
2022-09-24T00:01:39.382Z,76.70
2022-09-24T00:04:14.350Z,76.06
2022-09-24T00:06:45.461Z,77.13
2022-09-24T00:09:16.087Z,77.27
2022-09-24T00:11:45.573Z,77.92
2022-09-24T00:14:13.352Z,77.27
2022-09-24T00:16:43.746Z,77.63
2022-09-24T00:19:13.319Z,77.56
2022-09-24T00:21:41.862Z,77.57
2022-09-24T00:24:35.934Z,78.09
2022-09-24T00:27:06.989Z,77.64
2022-09-24T00:29:35.372Z,78.05
2022-09-24T00:32:05.337Z,77.34
2022-09-24T00:34:32.319Z,77.66
2022-09-24T00:36:59.537Z,76.27
2022-09-24T00:39:26.689Z,76.77
2022-09-24T00:41:53.794Z,77.31
2022-09-24T00:44:45.371Z,77.87
2022-09-24T00:47:32.095Z,76.38
2022-09-24T00:50:32.044Z,78.35
2022-09-24T00:53:13.912Z,78.16
2022-09-24T00:55:45.938Z,78.37
2022-09-24T00:58:14.397Z,79.85
2022-09-24T01:00:45.695Z,79.60
2022-09-24T01:03:23.131Z,79.33
2022-09-24T01:05:50.744Z,78.70
2022-09-24T01:08:21.019Z,78.35
2022-09-24T01:11:36.755Z,79.04
2022-09-24T01:15:01.162Z,78.50
2022-09-24T01:18:04.366Z,78.73
2022-09-24T01:21:09.178Z,79.41
2022-09-24T01:24:18.356Z,79.68
2022-09-24T01:27:20.048Z,80.72
2022-09-24T01:30:12.346Z,80.60
2022-09-24T01:33:00.888Z,78.76
2022-09-24T01:35:53.642Z,78.47
2022-09-24T01:38:34.473Z,77.26
2022-09-24T01:41:03.443Z,76.25
2022-09-24T01:43:32.846Z,76.79
2022-09-24T01:46:06.437Z,76.96
2022-09-24T01:48:37.270Z,77.52
2022-09-24T01:51:27.798Z,76.54
2022-09-24T01:54:18.039Z,77.38
2022-09-24T01:57:31.968Z,77.11
2022-09-24T02:00:15.019Z,77.29
2022-09-24T02:02:58.177Z,77.71
2022-09-24T02:06:03.859Z,77.59
2022-09-24T02:08:39.022Z,78.99
2022-09-24T02:11:14.690Z,78.45
2022-09-24T02:14:14.428Z,79.09
2022-09-24T02:16:48.960Z,78.85
2022-09-24T02:19:25.109Z,77.40
2022-09-24T02:21:52.756Z,78.82
2022-09-24T02:24:57.167Z,78.97
2022-09-24T02:27:29.294Z,78.38
2022-09-24T02:29:58.880Z,80.26
2022-09-24T02:32:31.105Z,80.12
2022-09-24T02:35:03.728Z,79.07
2022-09-24T02:37:40.558Z,78.37
2022-09-24T02:40:11.914Z,78.68
2022-09-24T02:42:41.042Z,79.20
2022-09-24T02:45:09.040Z,79.02
2022-09-24T02:47:36.926Z,78.69
2022-09-24T02:50:04.665Z,79.33
2022-09-24T02:52:31.669Z,79.68
2022-09-24T02:54:58.635Z,79.96
2022-09-24T02:57:25.649Z,79.66
2022-09-24T02:59:52.592Z,80.48
2022-09-24T03:02:19.553Z,80.31
2022-09-24T03:04:47.128Z,80.67
2022-09-24T03:07:15.024Z,79.80
2022-09-24T03:09:42.005Z,78.92
2022-09-24T03:12:09.542Z,80.25
2022-09-24T03:14:36.483Z,79.64
2022-09-24T03:17:04.080Z,80.72
2022-09-24T03:19:31.027Z,79.91
2022-09-24T03:21:58.012Z,80.25
2022-09-24T03:24:24.939Z,80.79
2022-09-24T03:26:51.927Z,81.11
2022-09-24T03:29:38.922Z,80.32
2022-09-24T03:32:05.915Z,79.34
2022-09-24T03:34:32.849Z,79.67
2022-09-24T03:36:59.800Z,80.87
2022-09-24T03:39:26.731Z,81.01
2022-09-24T03:41:53.698Z,80.23
2022-09-24T03:44:20.751Z,80.24
2022-09-24T03:46:48.203Z,79.31
2022-09-24T03:49:15.299Z,79.20
2022-09-24T03:51:42.261Z,80.16
2022-09-24T03:54:09.287Z,77.97
2022-09-24T03:56:36.272Z,79.33
2022-09-24T03:59:03.487Z,81.35
2022-09-24T04:01:33.167Z,81.56
2022-09-24T04:04:00.393Z,81.45
2022-09-24T04:06:27.355Z,82.29
2022-09-24T04:08:54.664Z,80.57
2022-09-24T04:11:22.697Z,80.21
2022-09-24T04:13:50.108Z,80.48
2022-09-24T04:16:17.972Z,80.32
2022-09-24T04:18:47.967Z,82.77
2022-09-24T04:21:15.207Z,82.75
2022-09-24T04:23:42.467Z,80.89
2022-09-24T04:26:09.563Z,80.74
2022-09-24T04:28:36.546Z,81.48
2022-09-24T04:31:04.017Z,81.94
2022-09-24T04:33:31.014Z,81.51
2022-09-24T04:35:58.035Z,84.49
2022-09-24T04:38:25.051Z,82.98
2022-09-24T04:40:52.052Z,82.20
2022-09-24T04:43:19.341Z,82.66
2022-09-24T04:45:46.779Z,82.84
2022-09-24T04:48:14.808Z,82.68
2022-09-24T04:50:45.727Z,81.75
2022-09-24T04:53:14.299Z,80.52
2022-09-24T04:55:41.888Z,81.83
2022-09-24T04:58:09.966Z,81.09
2022-09-24T05:00:37.284Z,80.83
2022-09-24T05:03:04.773Z,82.21
2022-09-24T05:05:33.933Z,80.52
2022-09-24T05:08:01.872Z,81.23
2022-09-24T05:10:31.599Z,83.15
2022-09-24T05:12:59.346Z,83.05
2022-09-24T05:15:26.761Z,81.79
2022-09-24T05:17:53.719Z,81.50
2022-09-24T05:20:20.886Z,82.50
2022-09-24T05:22:50.554Z,80.53
2022-09-24T05:25:21.168Z,80.98
2022-09-24T05:27:54.862Z,81.57
2022-09-24T05:30:25.550Z,81.87
2022-09-24T05:32:53.041Z,81.31
2022-09-24T05:35:24.507Z,80.09
2022-09-24T05:37:53.732Z,81.44
2022-09-24T05:40:40.346Z,80.47
2022-09-24T05:43:07.526Z,81.71
2022-09-24T05:45:34.463Z,81.03
2022-09-24T05:48:01.671Z,81.52
2022-09-24T05:50:28.753Z,81.53
2022-09-24T05:52:56.078Z,82.12
2022-09-24T05:55:23.096Z,81.80
2022-09-24T05:57:50.121Z,82.58
2022-09-24T06:00:17.149Z,82.15
2022-09-24T06:02:44.268Z,81.64
2022-09-24T06:05:12.618Z,81.88
2022-09-24T06:07:39.902Z,80.35
2022-09-24T06:10:07.649Z,80.16
2022-09-24T06:12:34.943Z,80.66
2022-09-24T06:15:02.849Z,79.47
2022-09-24T06:17:31.172Z,79.85
2022-09-24T06:19:58.128Z,78.51
2022-09-24T06:22:28.643Z,79.84
2022-09-24T06:24:55.970Z,79.83
2022-09-24T06:27:23.076Z,78.69
2022-09-24T06:29:50.142Z,76.52
2022-09-24T06:32:18.169Z,76.34
2022-09-24T06:34:45.421Z,76.47
2022-09-24T06:37:12.365Z,78.34
2022-09-24T06:39:39.356Z,76.49
2022-09-24T06:42:07.091Z,76.31
2022-09-24T06:44:35.092Z,76.53
2022-09-24T06:47:02.307Z,76.36
2022-09-24T06:49:33.781Z,77.94
2022-09-24T06:52:02.499Z,77.41
2022-09-24T06:54:29.469Z,77.43
2022-09-24T06:56:56.401Z,77.12
2022-09-24T06:59:23.362Z,76.96
2022-09-24T07:01:50.406Z,77.64
2022-09-24T07:04:19.375Z,76.99
2022-09-24T07:07:18.440Z,77.49
2022-09-24T07:09:45.363Z,76.06
2022-09-24T07:12:12.500Z,75.64
2022-09-24T07:14:39.430Z,74.68
2022-09-24T07:17:06.394Z,75.26
2022-09-24T07:19:34.942Z,75.74
2022-09-24T07:22:01.907Z,76.26
2022-09-24T07:24:28.828Z,75.79
2022-09-24T07:26:56.360Z,75.64
2022-09-24T07:29:23.427Z,75.94
2022-09-24T07:31:50.710Z,74.70
2022-09-24T07:34:17.717Z,74.98
2022-09-24T07:36:44.660Z,73.88
2022-09-24T07:39:11.940Z,73.20
2022-09-24T07:41:42.452Z,73.83
2022-09-24T07:44:10.021Z,74.38
2022-09-24T07:46:37.322Z,73.05
2022-09-24T07:49:04.527Z,72.89
2022-09-24T07:51:31.788Z,70.62
2022-09-24T07:53:59.089Z,72.24
2022-09-24T07:56:26.165Z,70.78
2022-09-24T07:58:53.861Z,70.98
2022-09-24T08:01:21.159Z,71.08
2022-09-24T08:03:48.366Z,71.66
2022-09-24T08:06:15.399Z,70.40
2022-09-24T08:08:43.392Z,69.94
2022-09-24T08:11:13.389Z,72.73
2022-09-24T08:13:40.461Z,72.79
2022-09-24T08:16:07.508Z,72.08
2022-09-24T08:18:34.866Z,71.71
2022-09-24T08:21:11.845Z,70.29
2022-09-24T08:23:40.122Z,70.69
2022-09-24T08:26:07.310Z,72.11
2022-09-24T08:28:35.098Z,71.10
2022-09-24T08:31:09.105Z,71.69
2022-09-24T08:33:37.809Z,69.51
2022-09-24T08:36:09.013Z,70.62
2022-09-24T08:38:36.730Z,69.60
2022-09-24T08:41:56.956Z,70.09
2022-09-24T08:45:03.524Z,69.41
2022-09-24T08:48:09.047Z,69.83
2022-09-24T08:50:39.512Z,68.30
2022-09-24T08:53:31.469Z,68.14
2022-09-24T08:56:01.891Z,67.35
2022-09-24T08:59:00.464Z,69.24
2022-09-24T09:02:13.426Z,71.38
2022-09-24T09:04:59.768Z,70.16
2022-09-24T09:07:40.299Z,68.05
2022-09-24T09:10:27.815Z,67.82
2022-09-24T09:13:07.238Z,69.49
2022-09-24T09:15:42.357Z,69.20
2022-09-24T09:18:32.747Z,67.45
2022-09-24T09:21:27.775Z,67.40
2022-09-24T09:23:57.969Z,70.04
2022-09-24T09:26:27.207Z,66.53
2022-09-24T09:29:01.413Z,68.38
2022-09-24T09:31:56.363Z,68.58
2022-09-24T09:34:43.093Z,68.59
2022-09-24T09:37:48.137Z,66.95
2022-09-24T09:40:29.088Z,66.06
2022-09-24T09:43:14.224Z,66.81
2022-09-24T09:46:01.749Z,65.33
2022-09-24T09:48:39.775Z,65.52
2022-09-24T09:51:16.641Z,65.00
2022-09-24T09:54:00.158Z,66.37
2022-09-24T09:56:36.886Z,65.28
2022-09-24T09:59:12.947Z,64.52
2022-09-24T10:01:46.098Z,65.26
2022-09-24T10:04:35.912Z,66.76
2022-09-24T10:07:31.497Z,62.84
2022-09-24T10:10:24.217Z,60.42
2022-09-24T10:13:12.445Z,63.17
2022-09-24T10:16:03.682Z,63.13
2022-09-24T10:18:34.722Z,63.05
2022-09-24T10:21:09.023Z,64.43
2022-09-24T10:23:47.277Z,64.64
2022-09-24T10:26:15.185Z,64.63
2022-09-24T10:29:11.096Z,62.82
2022-09-24T10:31:42.038Z,61.86
2022-09-24T10:34:28.939Z,62.17
2022-09-24T10:37:04.246Z,64.39
2022-09-24T10:39:34.264Z,64.23
2022-09-24T10:42:01.373Z,63.23
2022-09-24T10:44:37.412Z,62.87
2022-09-24T10:47:25.783Z,64.20
2022-09-24T10:50:35.451Z,62.06
2022-09-24T10:53:12.035Z,63.90
2022-09-24T10:56:34.321Z,62.26
2022-09-24T10:59:40.004Z,62.69
2022-09-24T11:03:09.603Z,58.29
2022-09-24T11:05:45.276Z,58.63
2022-09-24T11:08:46.671Z,58.91
2022-09-24T11:11:42.009Z,59.76
2022-09-24T11:14:45.021Z,58.09
2022-09-24T11:17:49.701Z,57.72
2022-09-24T11:20:50.302Z,60.18
2022-09-24T11:24:27.836Z,60.51
2022-09-24T11:27:45.001Z,60.06
2022-09-24T11:30:21.711Z,60.34
2022-09-24T11:33:26.434Z,59.69
2022-09-24T11:36:28.785Z,61.59
2022-09-24T11:39:43.490Z,59.80
2022-09-24T11:43:07.511Z,57.93
2022-09-24T11:45:59.166Z,59.35
2022-09-24T11:48:51.642Z,58.63
2022-09-24T11:52:31.568Z,59.99
2022-09-24T11:55:40.123Z,57.96
2022-09-24T11:58:27.022Z,57.35
2022-09-24T12:01:03.515Z,58.68
2022-09-24T12:04:24.047Z,57.82
2022-09-24T12:06:59.993Z,57.80
2022-09-24T12:10:17.115Z,57.17
2022-09-24T12:12:48.788Z,57.83
2022-09-24T12:15:22.306Z,56.88
2022-09-24T12:18:02.694Z,55.82
2022-09-24T12:20:32.302Z,58.21
2022-09-24T12:23:15.343Z,59.42
2022-09-24T12:25:46.968Z,57.06
2022-09-24T12:28:39.297Z,57.95
2022-09-24T12:31:55.068Z,57.95
2022-09-24T12:34:57.932Z,56.95
2022-09-24T12:37:38.565Z,57.33
2022-09-24T12:40:50.865Z,57.15
2022-09-24T12:44:17.149Z,57.69
2022-09-24T12:46:57.277Z,59.53
2022-09-24T12:49:27.209Z,56.01
2022-09-24T12:52:01.544Z,59.70
2022-09-24T12:54:38.378Z,59.87
2022-09-24T12:57:26.296Z,59.10
2022-09-24T13:00:01.156Z,59.94
2022-09-24T13:02:53.894Z,59.98
2022-09-24T13:05:27.075Z,57.90
2022-09-24T13:08:19.897Z,56.15
2022-09-24T13:11:06.442Z,60.96
2022-09-24T13:13:43.370Z,61.72
2022-09-24T13:16:21.195Z,60.49
2022-09-24T13:18:56.422Z,58.40
2022-09-24T13:21:27.841Z,61.42
2022-09-24T13:23:56.497Z,60.71
2022-09-24T13:26:33.962Z,61.14
2022-09-24T13:29:05.657Z,61.91
2022-09-24T13:31:49.307Z,60.78
2022-09-24T13:34:32.241Z,58.52
2022-09-24T13:37:34.720Z,58.51
2022-09-24T13:40:16.731Z,59.95
2022-09-24T13:43:16.165Z,59.85
2022-09-24T13:45:45.266Z,58.79
2022-09-24T13:49:03.620Z,62.81
2022-09-24T13:51:36.562Z,61.57
2022-09-24T13:54:39.759Z,60.84
2022-09-24T13:57:19.797Z,62.56
2022-09-24T13:59:46.757Z,62.31
2022-09-24T14:02:28.243Z,61.15
2022-09-24T14:05:00.812Z,58.53
2022-09-24T14:07:28.733Z,58.88
2022-09-24T14:10:14.564Z,59.44
2022-09-24T14:12:41.733Z,58.67
2022-09-24T14:15:18.394Z,62.52
2022-09-24T14:17:59.478Z,63.60
2022-09-24T14:20:34.377Z,63.60
2022-09-24T14:23:04.402Z,64.21
2022-09-24T14:25:36.546Z,64.65
2022-09-24T14:28:05.331Z,63.19
2022-09-24T14:30:37.208Z,61.40
2022-09-24T14:33:13.633Z,62.30
2022-09-24T14:35:45.075Z,63.01
2022-09-24T14:38:29.639Z,64.15
2022-09-24T14:41:06.659Z,63.50
2022-09-24T14:43:47.327Z,63.75
2022-09-24T14:46:27.393Z,64.05
2022-09-24T14:49:27.795Z,63.52
2022-09-24T14:52:05.115Z,63.14
2022-09-24T14:54:40.271Z,62.80
2022-09-24T14:57:19.355Z,63.57
2022-09-24T14:59:47.431Z,63.74
2022-09-24T15:02:35.041Z,66.19
2022-09-24T15:05:07.141Z,65.76
2022-09-24T15:07:35.429Z,64.12
2022-09-24T15:10:06.254Z,64.93
2022-09-24T15:12:37.975Z,64.69
2022-09-24T15:15:16.858Z,63.27
2022-09-24T15:17:47.106Z,63.57
2022-09-24T15:20:14.786Z,64.42
2022-09-24T15:22:41.857Z,63.86
2022-09-24T15:25:10.369Z,64.43
2022-09-24T15:27:39.391Z,65.86
2022-09-24T15:30:12.704Z,65.80
2022-09-24T15:32:39.684Z,65.89
2022-09-24T15:35:09.276Z,68.23
2022-09-24T15:37:39.407Z,68.12
2022-09-24T15:40:30.668Z,68.90
2022-09-24T15:42:57.749Z,70.00
2022-09-24T15:45:25.765Z,71.15
2022-09-24T15:47:53.911Z,69.39
2022-09-24T15:50:23.495Z,70.20
2022-09-24T15:52:56.562Z,71.14
2022-09-24T15:55:24.081Z,72.31
2022-09-24T15:57:51.197Z,71.92
2022-09-24T16:00:22.568Z,71.41
2022-09-24T16:02:54.878Z,70.38
2022-09-24T16:05:26.461Z,70.11
2022-09-24T16:07:53.574Z,70.24
2022-09-24T16:10:20.663Z,70.64
2022-09-24T16:12:47.654Z,69.93
2022-09-24T16:15:16.751Z,69.89
2022-09-24T16:17:44.090Z,72.41
2022-09-24T16:20:11.334Z,72.87
2022-09-24T16:22:38.500Z,73.24
2022-09-24T16:25:06.506Z,73.90
2022-09-24T16:27:35.226Z,73.52
2022-09-24T16:30:04.067Z,75.81
2022-09-24T16:32:31.014Z,75.97
2022-09-24T16:34:57.966Z,77.30
2022-09-24T16:37:25.600Z,78.55
2022-09-24T16:39:52.808Z,79.25
2022-09-24T16:42:19.784Z,79.14
2022-09-24T16:44:46.835Z,80.06
2022-09-24T16:47:16.347Z,80.08
2022-09-24T16:49:43.374Z,78.60
2022-09-24T16:52:10.665Z,78.68
2022-09-24T16:54:37.661Z,79.47
2022-09-24T16:57:06.063Z,78.72
2022-09-24T16:59:33.693Z,78.04
2022-09-24T17:02:01.148Z,78.46
2022-09-24T17:04:28.372Z,78.35
2022-09-24T17:06:59.129Z,78.69
2022-09-24T17:09:44.712Z,78.72
2022-09-24T17:12:11.804Z,79.27
2022-09-24T17:14:39.037Z,79.32
2022-09-24T17:17:06.733Z,78.68
2022-09-24T17:19:33.750Z,78.90
2022-09-24T17:22:00.992Z,78.37
2022-09-24T17:24:28.104Z,78.46
2022-09-24T17:26:56.694Z,78.77
2022-09-24T17:29:30.319Z,77.82
2022-09-24T17:31:58.392Z,79.30
2022-09-24T17:34:25.451Z,79.07
2022-09-24T17:36:52.400Z,76.89
2022-09-24T17:39:19.440Z,76.87
2022-09-24T17:41:46.452Z,76.82
2022-09-24T17:44:13.540Z,75.72
2022-09-24T17:46:40.892Z,76.11
2022-09-24T17:49:08.027Z,75.60
2022-09-24T17:51:36.688Z,75.31
2022-09-24T17:54:11.614Z,76.18
2022-09-24T17:56:38.742Z,76.72
2022-09-24T17:59:09.000Z,76.73
2022-09-24T18:01:38.748Z,76.74
2022-09-24T18:04:11.258Z,77.04
2022-09-24T18:06:40.730Z,76.39
2022-09-24T18:09:10.424Z,76.09
2022-09-24T18:11:51.595Z,74.83
2022-09-24T18:14:22.739Z,74.84
2022-09-24T18:16:50.379Z,74.75
2022-09-24T18:19:18.071Z,74.78
2022-09-24T18:21:46.488Z,74.97
2022-09-24T18:24:14.458Z,75.77
2022-09-24T18:26:41.609Z,74.98
2022-09-24T18:29:15.543Z,75.73
2022-09-24T18:31:43.859Z,75.30
2022-09-24T18:34:15.446Z,75.83
2022-09-24T18:36:45.083Z,75.27
2022-09-24T18:39:17.693Z,74.83
2022-09-24T18:41:47.227Z,75.86
2022-09-24T18:44:14.210Z,76.34
2022-09-24T18:46:42.034Z,76.93
2022-09-24T18:49:11.949Z,75.98
2022-09-24T18:51:39.092Z,77.27
2022-09-24T18:54:12.397Z,77.65
2022-09-24T18:56:40.107Z,77.52
2022-09-24T18:59:19.411Z,78.28
2022-09-24T19:01:48.401Z,78.42
2022-09-24T19:04:16.047Z,77.90
2022-09-24T19:06:46.054Z,78.38
2022-09-24T19:09:17.201Z,77.70
2022-09-24T19:11:45.493Z,79.65
2022-09-24T19:14:14.901Z,78.28
2022-09-24T19:16:41.872Z,81.02
2022-09-24T19:19:11.282Z,80.14
2022-09-24T19:21:40.501Z,82.71
2022-09-24T19:24:07.940Z,82.27
2022-09-24T19:26:36.709Z,82.78
2022-09-24T19:29:04.994Z,81.96
2022-09-24T19:31:42.424Z,81.13
2022-09-24T19:34:13.031Z,81.88
2022-09-24T19:36:45.054Z,80.77
2022-09-24T19:39:17.412Z,82.19
2022-09-24T19:41:44.658Z,82.82
2022-09-24T19:44:12.205Z,81.63
2022-09-24T19:46:40.216Z,82.24
2022-09-24T19:49:07.434Z,80.83
2022-09-24T19:51:35.892Z,81.81
2022-09-24T19:54:08.383Z,82.29
2022-09-24T19:56:36.559Z,81.94
2022-09-24T19:59:05.909Z,82.74
2022-09-24T20:01:33.708Z,83.32
2022-09-24T20:04:06.357Z,81.74
2022-09-24T20:06:35.905Z,82.04
2022-09-24T20:09:03.440Z,82.07
2022-09-24T20:11:32.628Z,82.31
2022-09-24T20:14:01.225Z,82.75
2022-09-24T20:16:33.212Z,82.77
2022-09-24T20:19:02.231Z,82.76
2022-09-24T20:21:35.036Z,82.91
2022-09-24T20:24:03.963Z,81.20
2022-09-24T20:26:50.147Z,81.90
2022-09-24T20:29:19.694Z,81.85
2022-09-24T20:31:53.207Z,81.56
2022-09-24T20:34:31.628Z,82.38
2022-09-24T20:36:59.274Z,82.40
2022-09-24T20:39:26.446Z,82.21
2022-09-24T20:41:53.621Z,81.61
2022-09-24T20:44:22.051Z,82.43
2022-09-24T20:46:49.192Z,82.11
2022-09-24T20:49:23.076Z,82.83
2022-09-24T20:51:57.357Z,81.16
2022-09-24T20:54:26.717Z,82.29
2022-09-24T20:56:53.773Z,83.05
2022-09-24T20:59:20.769Z,81.07
2022-09-24T21:01:49.415Z,82.45
2022-09-24T21:04:17.272Z,82.33
2022-09-24T21:06:44.223Z,82.06
2022-09-24T21:09:11.550Z,82.84
2022-09-24T21:11:38.659Z,82.44
2022-09-24T21:14:09.822Z,83.39
2022-09-24T21:16:37.305Z,82.64
2022-09-24T21:19:07.756Z,81.65
2022-09-24T21:21:38.544Z,83.55
2022-09-24T21:24:10.116Z,82.48
2022-09-24T21:26:39.702Z,82.41
2022-09-24T21:29:17.129Z,83.20
2022-09-24T21:31:47.302Z,82.47
2022-09-24T21:34:18.041Z,83.15
2022-09-24T21:36:45.989Z,83.45
2022-09-24T21:39:24.054Z,81.68
2022-09-24T21:41:52.920Z,82.78
2022-09-24T21:44:21.413Z,83.81
2022-09-24T21:46:52.444Z,82.11
2022-09-24T21:49:20.439Z,82.97
2022-09-24T21:51:47.617Z,82.41
2022-09-24T21:54:18.134Z,82.14
2022-09-24T21:56:46.509Z,82.67
2022-09-24T21:59:33.738Z,82.75
2022-09-24T22:02:02.367Z,83.16
2022-09-24T22:04:31.801Z,83.98
2022-09-24T22:06:59.341Z,83.60
2022-09-24T22:09:26.777Z,84.28
2022-09-24T22:11:59.072Z,84.21
2022-09-24T22:14:26.607Z,82.51
2022-09-24T22:16:54.118Z,84.20
2022-09-24T22:19:21.191Z,83.36
2022-09-24T22:21:48.250Z,84.60
2022-09-24T22:24:15.961Z,82.68
2022-09-24T22:26:43.010Z,84.55
2022-09-24T22:29:10.022Z,83.34
2022-09-24T22:31:37.034Z,83.98
2022-09-24T22:34:22.791Z,82.75
2022-09-24T22:36:50.017Z,83.46
2022-09-24T22:39:17.043Z,83.04
2022-09-24T22:41:44.041Z,83.33
2022-09-24T22:44:12.176Z,85.34
2022-09-24T22:46:41.261Z,83.73
2022-09-24T22:49:10.239Z,83.18
2022-09-24T22:51:38.409Z,84.12
2022-09-24T22:54:05.971Z,85.87
2022-09-24T22:56:34.831Z,85.84
2022-09-24T22:59:02.242Z,85.58
2022-09-24T23:01:38.567Z,85.47
2022-09-24T23:04:06.144Z,84.02
2022-09-24T23:06:34.608Z,84.25
2022-09-24T23:09:01.940Z,85.54
2022-09-24T23:11:33.822Z,84.85
2022-09-24T23:14:10.984Z,85.09
2022-09-24T23:16:38.498Z,86.51
2022-09-24T23:19:13.333Z,85.99
2022-09-24T23:21:40.419Z,85.41
2022-09-24T23:24:15.158Z,85.35
2022-09-24T23:26:42.478Z,84.03
2022-09-24T23:29:11.071Z,84.38
2022-09-24T23:31:38.881Z,85.23
2022-09-24T23:34:07.530Z,84.37
2022-09-24T23:36:36.086Z,83.33
2022-09-24T23:39:04.878Z,84.54
2022-09-24T23:41:32.151Z,85.58
2022-09-24T23:43:59.806Z,86.12
2022-09-24T23:46:27.527Z,85.70
2022-09-24T23:48:55.581Z,84.84
2022-09-24T23:51:23.223Z,84.18
2022-09-24T23:53:50.465Z,83.41
2022-09-24T23:56:18.041Z,84.92
2022-09-24T23:58:45.979Z,83.90
